Wetterdaten: Woche 18.07.16 - 24.07.16 (KW29)
Datum Zeit Temperatur Luftfeuchte Luftdruck Niederschlag Windrichtung Sonnenschein Solar Wind
18.07.2016 00:00 17,3 C 89 % 1019,5 hPa 0,0 l/m N 0,00 h 0 W/m 0,0 km/h (0 Bft)
18.07.2016 01:00 17,0 C 91 % 1019,5 hPa 0,0 l/m N 0,00 h 0 W/m 0,0 km/h (0 Bft)
18.07.2016 02:00 16,3 C 93 % 1019,5 hPa 0,0 l/m N 0,00 h 0 W/m 0,0 km/h (0 Bft)
18.07.2016 03:00 15,9 C 95 % 1019,5 hPa 0,0 l/m N 0,00 h 0 W/m 0,0 km/h (0 Bft)
18.07.2016 04:00 15,8 C 95 % 1019,2 hPa 0,0 l/m N 0,00 h 0 W/m 0,0 km/h (0 Bft)
18.07.2016 05:00 15,7 C 96 % 1019,1 hPa 0,0 l/m N 0,00 h 5 W/m 0,0 km/h (0 Bft)
18.07.2016 06:00 15,8 C 96 % 1019,3 hPa 0,0 l/m N 0,00 h 27 W/m 0,0 km/h (0 Bft)
18.07.2016 07:00 16,9 C 94 % 1019,5 hPa 0,0 l/m N 0,25 h 109 W/m 0,0 km/h (0 Bft)
18.07.2016 08:00 19,0 C 85 % 1019,4 hPa 0,0 l/m W-SW 0,75 h 302 W/m 0,8 km/h (0 Bft)
18.07.2016 09:00 21,1 C 76 % 1019,2 hPa 0,0 l/m W-SW 0,92 h 483 W/m 6,1 km/h (2 Bft)
18.07.2016 10:00 22,9 C 68 % 1019,0 hPa 0,0 l/m W-SW 1,00 h 652 W/m 5,7 km/h (1 Bft)
18.07.2016 11:00 24,3 C 63 % 1019,0 hPa 0,0 l/m SW 1,00 h 791 W/m 6,8 km/h (2 Bft)
18.07.2016 12:00 25,2 C 58 % 1019,0 hPa 0,0 l/m W 0,67 h 706 W/m 8,4 km/h (2 Bft)
18.07.2016 13:00 26,0 C 55 % 1018,8 hPa 0,0 l/m NW 0,83 h 869 W/m 7,8 km/h (2 Bft)
18.07.2016 14:00 26,7 C 54 % 1018,4 hPa 0,0 l/m W-SW 0,58 h 640 W/m 9,1 km/h (2 Bft)
18.07.2016 15:00 26,8 C 53 % 1018,1 hPa 0,0 l/m NW 0,83 h 728 W/m 8,6 km/h (2 Bft)
18.07.2016 16:00 27,5 C 51 % 1017,7 hPa 0,0 l/m NW 1,00 h 724 W/m 10,1 km/h (2 Bft)
18.07.2016 17:00 27,9 C 49 % 1017,3 hPa 0,0 l/m NO 0,67 h 438 W/m 7,4 km/h (2 Bft)
18.07.2016 18:00 26,8 C 53 % 1017,3 hPa 0,0 l/m N 0,75 h 351 W/m 6,6 km/h (2 Bft)
18.07.2016 19:00 26,8 C 53 % 1017,3 hPa 0,0 l/m NO 1,00 h 249 W/m 9,1 km/h (2 Bft)
18.07.2016 20:00 24,8 C 60 % 1017,7 hPa 0,0 l/m NO 0,17 h 38 W/m 8,4 km/h (2 Bft)
18.07.2016 21:00 22,6 C 70 % 1018,2 hPa 0,0 l/m NO 0,08 h 8 W/m 5,1 km/h (1 Bft)
18.07.2016 22:00 20,4 C 78 % 1018,4 hPa 0,0 l/m N 0,00 h 0 W/m 0,1 km/h (0 Bft)
18.07.2016 23:00 18,7 C 84 % 1018,6 hPa 0,0 l/m N 0,00 h 0 W/m 0,1 km/h (0 Bft)
19.07.2016 00:00 17,8 C 86 % 1018,7 hPa 0,0 l/m N 0,00 h 0 W/m 0,1 km/h (0 Bft)
19.07.2016 01:00 17,3 C 89 % 1018,6 hPa 0,0 l/m N 0,00 h 0 W/m 0,5 km/h (0 Bft)
19.07.2016 02:00 16,7 C 91 % 1018,6 hPa 0,0 l/m N 0,00 h 0 W/m 0,5 km/h (0 Bft)
19.07.2016 03:00 16,8 C 91 % 1018,4 hPa 0,0 l/m NO 0,00 h 0 W/m 2,4 km/h (1 Bft)
19.07.2016 04:00 16,6 C 91 % 1018,3 hPa 0,0 l/m N 0,00 h 0 W/m 0,0 km/h (0 Bft)
19.07.2016 05:00 15,6 C 93 % 1018,3 hPa 0,0 l/m N 0,00 h 6 W/m 0,0 km/h (0 Bft)
19.07.2016 06:00 15,7 C 94 % 1018,3 hPa 0,0 l/m N 0,00 h 32 W/m 0,0 km/h (0 Bft)
19.07.2016 07:00 17,6 C 88 % 1018,5 hPa 0,0 l/m N 0,58 h 159 W/m 0,0 km/h (0 Bft)
19.07.2016 08:00 19,7 C 82 % 1018,4 hPa 0,0 l/m N 1,00 h 327 W/m 0,0 km/h (0 Bft)
19.07.2016 09:00 22,1 C 74 % 1018,3 hPa 0,0 l/m NO 1,00 h 494 W/m 5,9 km/h (2 Bft)
19.07.2016 10:00 24,5 C 66 % 1018,2 hPa 0,0 l/m NO 1,00 h 645 W/m 8,8 km/h (2 Bft)
19.07.2016 11:00 26,4 C 60 % 1018,1 hPa 0,0 l/m O 1,00 h 769 W/m 12,0 km/h (2 Bft)
19.07.2016 12:00 27,0 C 56 % 1017,9 hPa 0,0 l/m O-NO 0,75 h 680 W/m 11,7 km/h (2 Bft)
19.07.2016 13:00 28,1 C 52 % 1017,6 hPa 0,0 l/m NO 1,00 h 867 W/m 9,7 km/h (2 Bft)
19.07.2016 14:00 28,6 C 49 % 1017,0 hPa 0,0 l/m O-NO 0,92 h 893 W/m 11,0 km/h (2 Bft)
19.07.2016 15:00 29,3 C 46 % 1016,7 hPa 0,0 l/m O-SO 1,00 h 827 W/m 7,1 km/h (2 Bft)
19.07.2016 16:00 29,5 C 44 % 1016,1 hPa 0,0 l/m O-NO 1,00 h 719 W/m 7,9 km/h (2 Bft)
19.07.2016 17:00 29,5 C 42 % 1015,7 hPa 0,0 l/m NO 0,92 h 531 W/m 7,1 km/h (2 Bft)
19.07.2016 18:00 29,2 C 43 % 1015,4 hPa 0,0 l/m O-NO 1,00 h 406 W/m 7,8 km/h (2 Bft)
19.07.2016 19:00 28,2 C 47 % 1015,1 hPa 0,0 l/m O-NO 1,00 h 225 W/m 8,7 km/h (2 Bft)
19.07.2016 20:00 26,1 C 55 % 1015,1 hPa 0,0 l/m O-NO 0,08 h 21 W/m 7,1 km/h (2 Bft)
19.07.2016 21:00 22,2 C 73 % 1015,3 hPa 0,0 l/m N 0,00 h 6 W/m 0,0 km/h (0 Bft)
19.07.2016 22:00 20,2 C 80 % 1015,4 hPa 0,0 l/m N 0,00 h 0 W/m 0,1 km/h (0 Bft)
19.07.2016 23:00 19,3 C 82 % 1015,5 hPa 0,0 l/m N 0,00 h 0 W/m 0,8 km/h (0 Bft)
20.07.2016 00:00 18,7 C 83 % 1015,5 hPa 0,0 l/m N 0,00 h 0 W/m 0,1 km/h (0 Bft)
20.07.2016 01:00 18,1 C 84 % 1015,4 hPa 0,0 l/m N 0,00 h 0 W/m 0,3 km/h (0 Bft)
20.07.2016 02:00 17,5 C 86 % 1015,3 hPa 0,0 l/m O-NO 0,00 h 0 W/m 2,5 km/h (1 Bft)
20.07.2016 03:00 17,0 C 88 % 1015,1 hPa 0,0 l/m N 0,00 h 0 W/m 0,5 km/h (0 Bft)
20.07.2016 04:00 16,2 C 91 % 1015,0 hPa 0,0 l/m N 0,00 h 0 W/m 0,0 km/h (0 Bft)
20.07.2016 05:00 15,3 C 94 % 1015,0 hPa 0,0 l/m N 0,00 h 6 W/m 0,0 km/h (0 Bft)
20.07.2016 06:00 15,5 C 95 % 1015,1 hPa 0,0 l/m N 0,00 h 34 W/m 0,0 km/h (0 Bft)
20.07.2016 07:00 18,0 C 88 % 1015,0 hPa 0,0 l/m N 0,67 h 163 W/m 0,0 km/h (0 Bft)
20.07.2016 08:00 20,9 C 77 % 1014,6 hPa 0,0 l/m N 1,00 h 329 W/m 0,0 km/h (0 Bft)
20.07.2016 09:00 23,0 C 69 % 1014,6 hPa 0,0 l/m O-SO 1,00 h 495 W/m 2,9 km/h (1 Bft)
20.07.2016 10:00 25,2 C 62 % 1014,4 hPa 0,0 l/m S-SW 1,00 h 649 W/m 7,8 km/h (2 Bft)
20.07.2016 11:00 26,8 C 59 % 1014,1 hPa 0,0 l/m S-SW 1,00 h 773 W/m 6,7 km/h (2 Bft)
20.07.2016 12:00 28,4 C 54 % 1013,7 hPa 0,0 l/m SW 1,00 h 854 W/m 8,6 km/h (2 Bft)
20.07.2016 13:00 29,5 C 47 % 1013,3 hPa 0,0 l/m SW 1,00 h 897 W/m 10,3 km/h (2 Bft)
20.07.2016 14:00 30,5 C 41 % 1013,0 hPa 0,0 l/m SW 1,00 h 889 W/m 10,8 km/h (2 Bft)
20.07.2016 15:00 31,0 C 36 % 1012,7 hPa 0,0 l/m S-SW 1,00 h 830 W/m 9,4 km/h (2 Bft)
20.07.2016 16:00 31,2 C 37 % 1012,2 hPa 0,0 l/m S-SW 1,00 h 724 W/m 9,3 km/h (2 Bft)
20.07.2016 17:00 30,9 C 40 % 1011,8 hPa 0,0 l/m S-SW 1,00 h 577 W/m 6,4 km/h (2 Bft)
20.07.2016 18:00 30,4 C 45 % 1011,3 hPa 0,0 l/m S-SW 1,00 h 405 W/m 7,9 km/h (2 Bft)
20.07.2016 19:00 28,5 C 53 % 1011,0 hPa 0,0 l/m SW 1,00 h 204 W/m 4,2 km/h (1 Bft)
20.07.2016 20:00 25,4 C 66 % 1011,1 hPa 0,0 l/m N 0,08 h 21 W/m 0,1 km/h (0 Bft)
20.07.2016 21:00 22,5 C 73 % 1011,3 hPa 0,0 l/m N 0,00 h 6 W/m 0,0 km/h (0 Bft)
20.07.2016 22:00 21,0 C 76 % 1011,4 hPa 0,0 l/m N 0,00 h 0 W/m 0,0 km/h (0 Bft)
20.07.2016 23:00 19,9 C 80 % 1011,3 hPa 0,0 l/m N 0,00 h 0 W/m 0,0 km/h (0 Bft)
21.07.2016 00:00 19,3 C 83 % 1011,4 hPa 0,0 l/m N 0,00 h 0 W/m 0,0 km/h (0 Bft)
21.07.2016 01:00 19,3 C 84 % 1010,9 hPa 0,0 l/m N 0,00 h 0 W/m 0,0 km/h (0 Bft)
21.07.2016 02:00 19,4 C 86 % 1010,5 hPa 0,0 l/m N 0,00 h 0 W/m 0,0 km/h (0 Bft)
21.07.2016 03:00 19,4 C 87 % 1010,5 hPa 0,0 l/m SW 0,00 h 0 W/m 1,5 km/h (1 Bft)
21.07.2016 04:00 19,5 C 87 % 1010,6 hPa 0,0 l/m SW 0,00 h 0 W/m 3,8 km/h (1 Bft)
21.07.2016 05:00 20,5 C 82 % 1012,2 hPa 0,2 l/m W-NW 0,00 h 0 W/m 17,0 km/h (3 Bft)
21.07.2016 06:00 19,5 C 87 % 1013,6 hPa 0,8 l/m NW 0,00 h 8 W/m 10,1 km/h (2 Bft)
21.07.2016 07:00 18,3 C 95 % 1014,0 hPa 1,0 l/m N 0,00 h 25 W/m 1,6 km/h (1 Bft)
21.07.2016 08:00 18,6 C 97 % 1013,8 hPa 0,0 l/m W-NW 0,00 h 115 W/m 1,5 km/h (1 Bft)
21.07.2016 09:00 20,1 C 94 % 1013,5 hPa 0,0 l/m SW 0,67 h 404 W/m 6,8 km/h (2 Bft)
21.07.2016 10:00 22,2 C 81 % 1012,9 hPa 0,0 l/m SW 0,92 h 579 W/m 5,9 km/h (2 Bft)
21.07.2016 11:00 23,4 C 74 % 1012,8 hPa 0,0 l/m SW 0,33 h 356 W/m 11,0 km/h (2 Bft)
21.07.2016 12:00 24,6 C 72 % 1012,3 hPa 0,0 l/m SW 0,75 h 706 W/m 13,8 km/h (3 Bft)
21.07.2016 13:00 25,7 C 65 % 1011,8 hPa 0,0 l/m SW 0,58 h 521 W/m 17,7 km/h (3 Bft)
21.07.2016 14:00 23,8 C 73 % 1011,9 hPa 0,0 l/m W-SW 0,17 h 275 W/m 14,6 km/h (3 Bft)
21.07.2016 15:00 25,9 C 66 % 1011,8 hPa 0,0 l/m W 1,00 h 807 W/m 17,7 km/h (3 Bft)
21.07.2016 16:00 27,0 C 58 % 1011,5 hPa 0,0 l/m W 1,00 h 703 W/m 12,2 km/h (2 Bft)
21.07.2016 17:00 27,1 C 57 % 1011,4 hPa 0,0 l/m NW 0,33 h 293 W/m 12,1 km/h (2 Bft)
21.07.2016 18:00 26,7 C 61 % 1011,5 hPa 0,0 l/m N 1,00 h 390 W/m 17,2 km/h (3 Bft)
21.07.2016 19:00 24,9 C 66 % 1012,1 hPa 0,0 l/m N-NO 1,00 h 211 W/m 16,0 km/h (3 Bft)
21.07.2016 20:00 22,8 C 71 % 1012,7 hPa 0,0 l/m N-NO 0,08 h 40 W/m 10,7 km/h (2 Bft)
21.07.2016 21:00 20,9 C 76 % 1013,4 hPa 0,0 l/m N-NO 0,00 h 8 W/m 3,2 km/h (1 Bft)
21.07.2016 22:00 18,8 C 86 % 1013,6 hPa 0,0 l/m N 0,00 h 0 W/m 0,3 km/h (0 Bft)
21.07.2016 23:00 17,6 C 90 % 1013,6 hPa 0,0 l/m N 0,00 h 0 W/m 0,1 km/h (0 Bft)
22.07.2016 00:00 16,9 C 92 % 1013,7 hPa 0,0 l/m N 0,00 h 0 W/m 0,9 km/h (0 Bft)
22.07.2016 01:00 16,5 C 93 % 1013,8 hPa 0,0 l/m N 0,00 h 0 W/m 0,4 km/h (0 Bft)
22.07.2016 02:00 15,9 C 95 % 1013,6 hPa 0,0 l/m N 0,00 h 0 W/m 0,1 km/h (0 Bft)
22.07.2016 03:00 15,7 C 96 % 1013,1 hPa 0,0 l/m N-NO 0,00 h 0 W/m 1,7 km/h (1 Bft)
22.07.2016 04:00 15,3 C 97 % 1013,0 hPa 0,0 l/m N 0,00 h 0 W/m 0,0 km/h (0 Bft)
22.07.2016 05:00 15,3 C 97 % 1012,8 hPa 0,0 l/m N 0,00 h 7 W/m 1,7 km/h (1 Bft)
22.07.2016 06:00 15,5 C 98 % 1012,8 hPa 0,0 l/m N 0,00 h 19 W/m 0,4 km/h (0 Bft)
22.07.2016 07:00 16,0 C 98 % 1012,8 hPa 0,0 l/m N-NO 0,00 h 70 W/m 3,1 km/h (1 Bft)
22.07.2016 08:00 18,2 C 93 % 1012,9 hPa 0,0 l/m N-NO 0,58 h 292 W/m 6,3 km/h (2 Bft)
22.07.2016 09:00 20,8 C 84 % 1012,8 hPa 0,0 l/m N-NO 0,83 h 454 W/m 9,1 km/h (2 Bft)
22.07.2016 10:00 22,6 C 76 % 1012,4 hPa 0,0 l/m NO 0,92 h 572 W/m 9,7 km/h (2 Bft)
22.07.2016 11:00 24,3 C 71 % 1011,8 hPa 0,0 l/m O-NO 1,00 h 661 W/m 12,9 km/h (3 Bft)
22.07.2016 12:00 25,4 C 64 % 1011,2 hPa 0,0 l/m O 0,83 h 574 W/m 16,6 km/h (3 Bft)
22.07.2016 13:00 25,5 C 64 % 1010,9 hPa 0,0 l/m O-SO 0,00 h 335 W/m 16,0 km/h (3 Bft)
22.07.2016 14:00 25,4 C 66 % 1010,6 hPa 0,0 l/m N-NO 0,00 h 296 W/m 14,8 km/h (3 Bft)
22.07.2016 15:00 24,8 C 67 % 1010,7 hPa 0,0 l/m NO 0,00 h 147 W/m 12,6 km/h (3 Bft)
22.07.2016 16:00 24,0 C 70 % 1011,0 hPa 0,0 l/m O 0,00 h 58 W/m 7,8 km/h (2 Bft)
22.07.2016 17:00 22,2 C 82 % 1011,6 hPa 0,8 l/m SW 0,00 h 15 W/m 6,3 km/h (2 Bft)
22.07.2016 18:00 19,0 C 94 % 1012,0 hPa 2,6 l/m W-SW 0,00 h 34 W/m 12,7 km/h (3 Bft)
22.07.2016 19:00 19,0 C 97 % 1012,2 hPa 0,0 l/m N 0,00 h 17 W/m 1,2 km/h (1 Bft)
22.07.2016 20:00 18,7 C 98 % 1012,7 hPa 0,0 l/m N 0,00 h 7 W/m 1,5 km/h (1 Bft)
22.07.2016 21:00 18,4 C 98 % 1012,6 hPa 0,0 l/m N 0,00 h 0 W/m 1,5 km/h (1 Bft)
22.07.2016 22:00 18,0 C 99 % 1013,1 hPa 0,0 l/m W-SW 0,00 h 0 W/m 4,0 km/h (1 Bft)
22.07.2016 23:00 17,8 C 99 % 1013,3 hPa 0,2 l/m N 0,00 h 0 W/m 3,5 km/h (1 Bft)
23.07.2016 00:00 17,7 C 99 % 1013,6 hPa 0,0 l/m N 0,00 h 0 W/m 0,0 km/h (0 Bft)
23.07.2016 01:00 17,2 C 99 % 1013,6 hPa 0,0 l/m N 0,00 h 0 W/m 0,0 km/h (0 Bft)
23.07.2016 02:00 16,5 C 99 % 1013,6 hPa 0,0 l/m N 0,00 h 0 W/m 0,0 km/h (0 Bft)
23.07.2016 03:00 16,3 C 99 % 1013,7 hPa 0,0 l/m N 0,00 h 0 W/m 0,0 km/h (0 Bft)
23.07.2016 04:00 15,9 C 99 % 1013,4 hPa 0,0 l/m N 0,00 h 0 W/m 0,0 km/h (0 Bft)
23.07.2016 05:00 15,4 C 100 % 1013,5 hPa 0,0 l/m N 0,00 h 6 W/m 0,0 km/h (0 Bft)
23.07.2016 06:00 15,7 C 100 % 1013,5 hPa 0,0 l/m N 0,00 h 25 W/m 0,0 km/h (0 Bft)
23.07.2016 07:00 16,0 C 100 % 1014,0 hPa 0,0 l/m N 0,00 h 55 W/m 0,0 km/h (0 Bft)
23.07.2016 08:00 17,0 C 99 % 1014,2 hPa 0,0 l/m SW 0,08 h 148 W/m 1,3 km/h (1 Bft)
23.07.2016 09:00 18,5 C 95 % 1014,4 hPa 0,0 l/m SW 0,42 h 318 W/m 3,7 km/h (1 Bft)
23.07.2016 10:00 19,6 C 91 % 1014,5 hPa 0,0 l/m W-SW 0,25 h 307 W/m 9,3 km/h (2 Bft)
23.07.2016 11:00 21,4 C 83 % 1014,5 hPa 0,0 l/m SW 0,50 h 452 W/m 8,0 km/h (2 Bft)
23.07.2016 12:00 22,2 C 79 % 1014,1 hPa 0,0 l/m SW 0,25 h 336 W/m 8,7 km/h (2 Bft)
23.07.2016 13:00 22,4 C 80 % 1014,6 hPa 0,0 l/m S-SW 0,00 h 252 W/m 11,7 km/h (2 Bft)
23.07.2016 14:00 22,5 C 78 % 1014,4 hPa 0,0 l/m S-SW 0,00 h 306 W/m 10,8 km/h (2 Bft)
23.07.2016 15:00 23,4 C 77 % 1014,3 hPa 0,0 l/m S-SW 0,25 h 384 W/m 10,6 km/h (2 Bft)
23.07.2016 16:00 23,7 C 75 % 1014,0 hPa 0,0 l/m SW 0,33 h 364 W/m 11,0 km/h (2 Bft)
23.07.2016 17:00 23,1 C 75 % 1014,0 hPa 0,0 l/m SW 0,08 h 203 W/m 11,8 km/h (2 Bft)
23.07.2016 18:00 22,0 C 76 % 1014,2 hPa 0,0 l/m N-NO 0,00 h 79 W/m 12,5 km/h (3 Bft)
23.07.2016 19:00 20,4 C 78 % 1014,8 hPa 0,0 l/m O 0,00 h 39 W/m 12,0 km/h (2 Bft)
23.07.2016 20:00 18,9 C 85 % 1015,2 hPa 0,0 l/m O-NO 0,00 h 8 W/m 7,9 km/h (2 Bft)
23.07.2016 21:00 17,3 C 92 % 1015,2 hPa 0,0 l/m N 0,00 h 0 W/m 0,8 km/h (0 Bft)
23.07.2016 22:00 16,7 C 93 % 1016,1 hPa 0,0 l/m SO 0,00 h 0 W/m 1,2 km/h (1 Bft)
23.07.2016 23:00 17,3 C 91 % 1016,3 hPa 0,0 l/m SO 0,00 h 0 W/m 2,0 km/h (1 Bft)
24.07.2016 00:00 16,5 C 94 % 1016,4 hPa 0,0 l/m N 0,00 h 0 W/m 0,4 km/h (0 Bft)
24.07.2016 01:00 16,4 C 94 % 1016,7 hPa 0,0 l/m N 0,00 h 0 W/m 0,3 km/h (0 Bft)
24.07.2016 02:00 15,8 C 95 % 1016,6 hPa 0,0 l/m N 0,00 h 0 W/m 0,0 km/h (0 Bft)
24.07.2016 03:00 15,7 C 96 % 1016,4 hPa 0,0 l/m N 0,00 h 0 W/m 0,0 km/h (0 Bft)
24.07.2016 04:00 15,6 C 96 % 1016,2 hPa 0,0 l/m N 0,00 h 0 W/m 0,0 km/h (0 Bft)
24.07.2016 05:00 15,1 C 95 % 1016,4 hPa 0,0 l/m N 0,00 h 5 W/m 0,0 km/h (0 Bft)
24.07.2016 06:00 15,0 C 96 % 1016,7 hPa 0,0 l/m N 0,00 h 21 W/m 0,0 km/h (0 Bft)
24.07.2016 07:00 15,7 C 97 % 1016,7 hPa 0,0 l/m N 0,42 h 117 W/m 0,0 km/h (0 Bft)
24.07.2016 08:00 18,7 C 92 % 1016,6 hPa 0,0 l/m SO 1,00 h 304 W/m 3,3 km/h (1 Bft)
24.07.2016 09:00 20,9 C 85 % 1016,6 hPa 0,0 l/m SO 0,75 h 429 W/m 2,5 km/h (1 Bft)
24.07.2016 10:00 21,3 C 82 % 1016,5 hPa 0,0 l/m SO 0,17 h 259 W/m 3,6 km/h (1 Bft)
24.07.2016 11:00 21,5 C 80 % 1016,3 hPa 0,0 l/m SO 0,00 h 146 W/m 3,2 km/h (1 Bft)
24.07.2016 12:00 21,8 C 81 % 1016,2 hPa 0,0 l/m SO 0,42 h 495 W/m 2,4 km/h (1 Bft)
24.07.2016 13:00 24,1 C 67 % 1015,9 hPa 0,0 l/m S-SO 0,58 h 603 W/m 7,0 km/h (2 Bft)
24.07.2016 14:00 25,3 C 63 % 1015,7 hPa 0,0 l/m S-SW 1,00 h 880 W/m 7,0 km/h (2 Bft)
24.07.2016 15:00 25,4 C 60 % 1015,4 hPa 0,0 l/m S-SW 0,25 h 438 W/m 6,7 km/h (2 Bft)
24.07.2016 16:00 26,6 C 57 % 1015,0 hPa 0,0 l/m N-NO 1,00 h 746 W/m 7,0 km/h (2 Bft)
24.07.2016 17:00 25,0 C 64 % 1014,6 hPa 0,0 l/m N 0,08 h 145 W/m 6,6 km/h (2 Bft)
24.07.2016 18:00 24,7 C 67 % 1014,7 hPa 0,0 l/m N-NW 0,33 h 239 W/m 9,9 km/h (2 Bft)
24.07.2016 19:00 24,1 C 69 % 1014,9 hPa 0,0 l/m N 0,33 h 90 W/m 10,5 km/h (2 Bft)
24.07.2016 20:00 21,8 C 79 % 1015,3 hPa 0,0 l/m N 0,08 h 22 W/m 10,2 km/h (2 Bft)
24.07.2016 21:00 20,0 C 86 % 1015,6 hPa 0,0 l/m N 0,00 h 5 W/m 1,7 km/h (1 Bft)
24.07.2016 22:00 19,5 C 88 % 1016,0 hPa 0,0 l/m N 0,00 h 0 W/m 1,5 km/h (1 Bft)
24.07.2016 23:00 18,8 C 92 % 1016,5 hPa 0,0 l/m N-NW 0,00 h 0 W/m 1,6 km/h (1 Bft)
Min-Datum _ 20.07.16 20.07.16 21.07.16 - - - - 18.07.16
_ Min-Zeit 05:50 15:00 04:15 - - - - 00:00
Minimum _ 15,0 C 35 % 1010,2 hPa - - - - 0,0 km/h (0 Bft)
Max-Datum _ 20.07.16 23.07.16 18.07.16 22.07.16 - 20.07.16 18.07.16 22.07.16
_ Max-Zeit 16:25 05:30 00:00 18:15 - 19:05 14:25 17:45
Maximum _ 31,7 C 100 % 1019,6 hPa 2,6 l/m - 0,17 h 1056 W/m 27,4 km/h
SW (4 Bft)
Durchschnitt _ 21,2 C 78 % 1014,9 hPa #5,6 l/m S-SW #56:05 h 343 W/m 5,0 km/h (1 Bft)